Bellshill, United Kingdom
Current Conditions -  °F | °C
As of 8:50 AM on Wednesday 22 Oct 2014 (Local Time) from EGPF Reporting Station
Broken Clouds Broken Clouds  
Wind Chill: 50°   Ceiling: 2300
Heat Index: 50°   Visibility: 4mi
Dew Point: 48°   Wind: 8mph
Humidity: 94%   Direction: 220°SW
Pressure: 30.09"   Gusts: NA
Location:  55.82°N, 4.03°W
Report Text: EGPF 220750Z AUTO 22007KT 6000 SCT014 BKN023 BKN037 10/09 Q1019
Loading
Personal Weather Stations






























Interactive Weather Map New forecast layout! Learn more

10-Day Weather Forecast

Advertisements
Track Severe Weather on mobile